RYR44UC LPFR-EGPH
Flight info
| Callsign | RYR44UC |
|---|---|
| Flight time | N/A |
| Altitude | 36000 |
| Route | XERES DCT ADVAT/M077F370 T290 GELPO DCT JABEX/N0449F370 DCT BIBLA DCT TISMO DCT ROTEV DCT GOTNA DCT BLACA/N0364F250 P600 TUNSO |
| Aircraft | B738/M-SDE2E3FGHIRWXY/LB1 |
Departure
| Time | N/A |
|---|---|
| Airport | Faro - Gago Coutinho International Airport (LPFR) |
Arrival
| Time | 2026-05-03 20:34 |
|---|---|
| Airport | Edinburgh Airport (EGPH) |
| Time | Latitude | Longitude | Altitude | Speed | Heading |
|---|---|---|---|---|---|
| 2026-05-03 20:15 | 55.66595 | -3.80145 | 6118 ft | 256 kts | 24° |
| 2026-05-03 20:15 | 55.68210 | -3.78820 | 5886 ft | 256 kts | 24° |
| 2026-05-03 20:15 | 55.69822 | -3.77494 | 5653 ft | 255 kts | 24° |
| 2026-05-03 20:15 | 55.71433 | -3.76167 | 5424 ft | 255 kts | 24° |
| 2026-05-03 20:16 | 55.73042 | -3.74841 | 5182 ft | 255 kts | 24° |
| 2026-05-03 20:16 | 55.74657 | -3.73510 | 4900 ft | 256 kts | 24° |
| 2026-05-03 20:16 | 55.76264 | -3.72186 | 4607 ft | 252 kts | 24° |
| 2026-05-03 20:16 | 55.77827 | -3.70899 | 4321 ft | 243 kts | 24° |
| 2026-05-03 20:17 | 55.79295 | -3.69689 | 4080 ft | 228 kts | 24° |
| 2026-05-03 20:17 | 55.80695 | -3.68532 | 3887 ft | 216 kts | 24° |
| 2026-05-03 20:17 | 55.82028 | -3.67428 | 3697 ft | 206 kts | 24° |
| 2026-05-03 20:17 | 55.83303 | -3.66370 | 3461 ft | 198 kts | 24° |
| 2026-05-03 20:18 | 55.84527 | -3.65351 | 3275 ft | 190 kts | 24° |
| 2026-05-03 20:18 | 55.85590 | -3.64073 | 3099 ft | 185 kts | 49° |
| 2026-05-03 20:18 | 55.86360 | -3.62232 | 3050 ft | 185 kts | 50° |
| 2026-05-03 20:18 | 55.87120 | -3.60440 | 2955 ft | 177 kts | 54° |
| 2026-05-03 20:19 | 55.87777 | -3.58643 | 2766 ft | 170 kts | 57° |
| 2026-05-03 20:19 | 55.88383 | -3.56867 | 2538 ft | 166 kts | 58° |
| 2026-05-03 20:19 | 55.88975 | -3.55109 | 2316 ft | 165 kts | 58° |
| 2026-05-03 20:19 | 55.89567 | -3.53348 | 2101 ft | 167 kts | 58° |
| 2026-05-03 20:20 | 55.90162 | -3.51581 | 1877 ft | 165 kts | 59° |
| 2026-05-03 20:20 | 55.90754 | -3.49824 | 1648 ft | 167 kts | 59° |
| 2026-05-03 20:20 | 55.91339 | -3.48085 | 1424 ft | 157 kts | 59° |
| 2026-05-03 20:20 | 55.91885 | -3.46460 | 1163 ft | 149 kts | 59° |
| 2026-05-03 20:21 | 55.92414 | -3.44882 | 976 ft | 148 kts | 59° |
| 2026-05-03 20:21 | 55.92944 | -3.43316 | 766 ft | 147 kts | 59° |
| 2026-05-03 20:21 | 55.93483 | -3.41741 | 677 ft | 157 kts | 59° |
| 2026-05-03 20:21 | 55.93678 | -3.41176 | 825 ft | 161 kts | 59° |
| 2026-05-03 20:22 | 55.96215 | -3.33722 | 2044 ft | 243 kts | 59° |
| 2026-05-03 20:22 | 55.97089 | -3.31094 | 2283 ft | 249 kts | 59° |
| 2026-05-03 20:23 | 55.97968 | -3.28412 | 2502 ft | 250 kts | 59° |
| 2026-05-03 20:23 | 55.98825 | -3.25723 | 2758 ft | 249 kts | 64° |
| 2026-05-03 20:23 | 55.99169 | -3.22708 | 2984 ft | 252 kts | 93° |
| 2026-05-03 20:23 | 55.98640 | -3.19705 | 2988 ft | 258 kts | 122° |
| 2026-05-03 20:24 | 55.97388 | -3.17441 | 3006 ft | 258 kts | 142° |
| 2026-05-03 20:24 | 55.95932 | -3.15546 | 2999 ft | 259 kts | 144° |
| 2026-05-03 20:24 | 55.94462 | -3.13700 | 2994 ft | 258 kts | 144° |
| 2026-05-03 20:24 | 55.92983 | -3.11887 | 2983 ft | 258 kts | 149° |
| 2026-05-03 20:25 | 55.91403 | -3.11006 | 2991 ft | 257 kts | 177° |
| 2026-05-03 20:25 | 55.89744 | -3.11538 | 2992 ft | 256 kts | 206° |
| 2026-05-03 20:25 | 55.88365 | -3.13470 | 3000 ft | 253 kts | 230° |
| 2026-05-03 20:25 | 55.87269 | -3.15934 | 3000 ft | 255 kts | 233° |
| 2026-05-03 20:26 | 55.86275 | -3.18285 | 2993 ft | 256 kts | 234° |
| 2026-05-03 20:26 | 55.85209 | -3.20828 | 2987 ft | 257 kts | 234° |
| 2026-05-03 20:26 | 55.84145 | -3.23382 | 2991 ft | 257 kts | 234° |
| 2026-05-03 20:26 | 55.83262 | -3.26120 | 2977 ft | 256 kts | 256° |
| 2026-05-03 20:27 | 55.83050 | -3.28781 | 2999 ft | 254 kts | 268° |
| 2026-05-03 20:27 | 55.82963 | -3.31962 | 2993 ft | 254 kts | 269° |
| 2026-05-03 20:27 | 55.82901 | -3.35064 | 2995 ft | 255 kts | 269° |
| 2026-05-03 20:27 | 55.82842 | -3.38218 | 2995 ft | 255 kts | 269° |
| 2026-05-03 20:28 | 55.82785 | -3.41379 | 2992 ft | 256 kts | 269° |
| 2026-05-03 20:28 | 55.82729 | -3.44537 | 2990 ft | 255 kts | 269° |
| 2026-05-03 20:28 | 55.82673 | -3.47655 | 2971 ft | 247 kts | 269° |
| 2026-05-03 20:28 | 55.82617 | -3.50609 | 2992 ft | 230 kts | 269° |
| 2026-05-03 20:29 | 55.82564 | -3.53349 | 2966 ft | 213 kts | 269° |
| 2026-05-03 20:29 | 55.82512 | -3.55879 | 2961 ft | 196 kts | 269° |
| 2026-05-03 20:29 | 55.82461 | -3.58224 | 2990 ft | 188 kts | 270° |
| 2026-05-03 20:29 | 55.82773 | -3.60416 | 2937 ft | 185 kts | 306° |
| 2026-05-03 20:30 | 55.83792 | -3.61785 | 2669 ft | 188 kts | 345° |
| 2026-05-03 20:30 | 55.85054 | -3.61658 | 2488 ft | 182 kts | 23° |
| 2026-05-03 20:30 | 55.86160 | -3.60635 | 2402 ft | 179 kts | 29° |
| 2026-05-03 20:30 | 55.87201 | -3.59411 | 2249 ft | 182 kts | 46° |
| 2026-05-03 20:31 | 55.87970 | -3.57627 | 2162 ft | 181 kts | 52° |
| 2026-05-03 20:31 | 55.88685 | -3.55871 | 2027 ft | 170 kts | 56° |
| 2026-05-03 20:31 | 55.89301 | -3.54130 | 2043 ft | 165 kts | 58° |
| 2026-05-03 20:31 | 55.89901 | -3.52358 | 1937 ft | 168 kts | 59° |
| 2026-05-03 20:32 | 55.90501 | -3.50575 | 1723 ft | 165 kts | 59° |
| 2026-05-03 20:32 | 55.91068 | -3.48898 | 1472 ft | 153 kts | 59° |
| 2026-05-03 20:32 | 55.91612 | -3.47301 | 1283 ft | 150 kts | 59° |
| 2026-05-03 20:32 | 55.92142 | -3.45711 | 1078 ft | 149 kts | 59° |
| 2026-05-03 20:33 | 55.92670 | -3.44130 | 850 ft | 148 kts | 59° |
| 2026-05-03 20:33 | 55.93203 | -3.42563 | 662 ft | 147 kts | 59° |
| 2026-05-03 20:34 | 55.95147 | -3.36813 | 111 ft | 84 kts | 59° |
| 2026-05-03 20:34 | 55.95362 | -3.36183 | 109 ft | 50 kts | 59° |
| 2026-05-03 20:34 | 55.95509 | -3.35746 | 112 ft | 30 kts | 59° |
| 2026-05-03 20:35 | 55.95566 | -3.35534 | 112 ft | 13 kts | 104° |
| 2026-05-03 20:35 | 55.95498 | -3.35439 | 113 ft | 11 kts | 149° |
| 2026-05-03 20:35 | 55.95450 | -3.35401 | 113 ft | 7 kts | 178° |
| 2026-05-03 20:35 | 55.95413 | -3.35457 | 115 ft | 8 kts | 239° |
| 2026-05-03 20:36 | 55.95385 | -3.35539 | 114 ft | 8 kts | 238° |
| 2026-05-03 20:36 | 55.95359 | -3.35618 | 113 ft | 7 kts | 239° |
| 2026-05-03 20:36 | 55.95333 | -3.35695 | 113 ft | 7 kts | 239° |
| 2026-05-03 20:36 | 55.95313 | -3.35754 | 114 ft | 2 kts | 238° |
| 2026-05-03 20:37 | 55.95313 | -3.35755 | 114 ft | 0 kts | 238° |
| 2026-05-03 20:38 | 55.95310 | -3.35762 | 115 ft | 3 kts | 238° |
| 2026-05-03 20:38 | 55.95284 | -3.35838 | 115 ft | 11 kts | 239° |
| 2026-05-03 20:38 | 55.95243 | -3.35960 | 115 ft | 12 kts | 239° |
| 2026-05-03 20:38 | 55.95202 | -3.36082 | 115 ft | 11 kts | 239° |
| 2026-05-03 20:39 | 55.95164 | -3.36168 | 115 ft | 9 kts | 205° |
| 2026-05-03 20:39 | 55.95117 | -3.36125 | 114 ft | 8 kts | 114° |
| 2026-05-03 20:39 | 55.95104 | -3.36058 | 115 ft | 4 kts | 108° |
| 2026-05-03 20:39 | 55.95096 | -3.36016 | 115 ft | 3 kts | 108° |
| 2026-05-03 20:40 | 55.95085 | -3.35999 | 114 ft | 2 kts | 178° |
| 2026-05-03 20:40 | 55.95070 | -3.36014 | 113 ft | 2 kts | 218° |
| 2026-05-03 20:40 | 55.95059 | -3.36036 | 115 ft | 2 kts | 230° |
| 2026-05-03 20:40 | 55.95049 | -3.36059 | 114 ft | 2 kts | 232° |
| 2026-05-03 20:41 | 55.95040 | -3.36081 | 115 ft | 2 kts | 232° |
| 2026-05-03 20:41 | 55.95036 | -3.36088 | 113 ft | 0 kts | 233° |